Terminal Aerodrome Forecast
Issued by NWS Blacksburg, VA

Home | Current Version | Previous Version | Text Only | Print | Product List | Glossary On
Versions: 1 2 3 4 5 6 7 8 9 10 11 12 13 14 15 16 17 18 19 20 21 22 23 24 25 26 27 28 29 30 31 32 33
000
FTUS41 KRNK 231400 AAA
TAFBLF
TAF AMD
KBLF 231400Z 2314/2412 25005KT 1/2SM FG VV002
     FM231500 26005KT 2SM BR SCT003 OVC008
     FM231600 29005KT 6SM BR SCT008 OVC015
     FM231800 31007KT P6SM VCTS BKN030CB OVC045
     FM240100 32005KT 4SM BR VCSH SCT007 OVC025
     FM240600 VRB04KT 3SM -DZ BR OVC004=

USA.gov is the U.S. government's official web portal to all federal, state and local government web resources and services.